Time;durP1;ratioP1;P1;durP2;ratioP2;P2;SDS_P1;SDS_P2;PMS_P1;PMS_P2;Temp;Humidity;BMP_temperature;BMP_pressure;BME280_temperature;BME280_humidity;BME280_pressure;Samples;Min_cycle;Max_cycle;Signal;HPM_P1;HPM_P2
2023/07/06 00:01:48;;;;;;;5.95;3.80;;;12.20;99.90;;;;;;5059122;28;20040;-87
2023/07/06 00:04:14;;;;;;;6.45;3.35;;;12.30;99.90;;;;;;5035441;28;20545;-88
2023/07/06 00:06:40;;;;;;;6.38;3.22;;;12.30;99.90;;;;;;5035611;28;20082;-88
2023/07/06 00:09:06;;;;;;;6.97;3.75;;;10.80;99.90;;;;;;5025635;28;20138;-88
2023/07/06 00:11:36;;;;;;;5.93;3.90;;;12.30;99.90;;;;;;5025906;28;20045;-87
2023/07/06 00:14:04;;;;;;;10.63;3.70;;;12.20;99.90;;;;;;5059308;28;20045;-88
2023/07/06 00:16:41;;;;;;;11.18;4.07;;;12.10;99.90;;;;;;5042416;28;20039;-88
2023/07/06 00:19:08;;;;;;;7.38;3.95;;;12.20;99.90;;;;;;5031143;28;20120;-88
2023/07/06 00:21:34;;;;;;;5.18;3.80;;;;;;;;;;5038231;28;20519;-88
2023/07/06 00:24:00;;;;;;;8.15;3.83;;;12.20;99.90;;;;;;5058924;28;20044;-88
2023/07/06 00:26:26;;;;;;;5.75;4.15;;;12.50;99.90;;;;;;5060235;28;20040;-87
2023/07/06 00:28:53;;;;;;;5.28;3.92;;;12.40;99.90;;;;;;5058157;28;20040;-87
2023/07/06 00:31:32;;;;;;;9.88;3.60;;;12.20;99.90;;;;;;5021932;28;20040;-88
2023/07/06 00:34:05;;;;;;;5.57;4.07;;;12.10;99.90;;;;;;5062454;28;20504;-88
2023/07/06 00:36:33;;;;;;;4.95;4.15;;;12.20;99.90;;;;;;5041331;28;20048;-88
2023/07/06 00:39:02;;;;;;;5.43;4.28;;;12.30;99.90;;;;;;5057757;28;20072;-88
2023/07/06 00:41:28;;;;;;;7.07;4.75;;;12.10;99.90;;;;;;5035392;28;20486;-88
2023/07/06 00:43:56;;;;;;;6.90;4.40;;;12.10;99.90;;;;;;5037621;28;20083;-88
2023/07/06 00:46:29;;;;;;;6.13;4.70;;;12.10;99.90;;;;;;5020410;28;20041;-88
2023/07/06 00:48:56;;;;;;;8.43;5.10;;;12.10;99.90;;;;;;5023420;28;20044;-87
2023/07/06 00:51:32;;;;;;;6.28;5.30;;;12.00;99.90;;;;;;5025479;28;20392;-88
2023/07/06 00:54:03;;;;;;;8.02;5.13;;;12.00;99.90;;;;;;5058959;28;20037;-88
2023/07/06 00:56:36;;;;;;;6.82;4.80;;;12.10;99.90;;;;;;5060221;28;20501;-88
2023/07/06 00:59:05;;;;;;;10.70;6.05;;;12.10;99.90;;;;;;5071746;28;20079;-88
2023/07/06 01:01:36;;;;;;;7.88;5.25;;;12.00;99.90;;;;;;5071082;28;20570;-88
2023/07/06 01:04:04;;;;;;;8.57;5.20;;;12.00;99.90;;;;;;5061125;28;20091;-88
2023/07/06 01:06:41;;;;;;;6.38;4.75;;;10.90;99.90;;;;;;5042118;28;20041;-88
2023/07/06 01:09:07;;;;;;;9.63;5.05;;;12.00;99.90;;;;;;5045162;28;20106;-88
2023/07/06 01:11:36;;;;;;;8.82;5.57;;;12.00;99.90;;;;;;5062370;28;20040;-89
2023/07/06 01:14:02;;;;;;;9.68;5.13;;;11.20;99.90;;;;;;5061652;28;20044;-88
2023/07/06 01:16:54;;;;;;;9.52;5.10;;;12.00;99.90;;;;;;5038617;28;20042;-88
2023/07/06 01:19:44;;;;;;;6.93;5.47;;;12.00;99.90;;;;;;5028782;28;20073;-88
2023/07/06 01:22:40;;;;;;;6.03;4.60;;;12.10;99.90;;;;;;5036149;28;20048;-88
2023/07/06 01:25:12;;;;;;;5.63;4.90;;;12.10;99.90;;;;;;5016135;28;20052;-88
2023/07/06 01:27:38;;;;;;;6.53;4.32;;;12.00;99.90;;;;;;5038581;28;20351;-87
2023/07/06 01:30:19;;;;;;;7.35;5.25;;;12.00;99.90;;;;;;5043020;28;20204;-88
2023/07/06 01:32:52;;;;;;;9.90;5.13;;;12.00;99.90;;;;;;5062244;28;20044;-88
2023/07/06 01:35:31;;;;;;;9.75;5.18;;;12.00;99.90;;;;;;5051842;28;20362;-88
2023/07/06 01:37:57;;;;;;;6.82;5.38;;;11.40;99.90;;;;;;5025247;28;20103;-88
2023/07/06 01:40:23;;;;;;;6.93;4.72;;;;;;;;;;5044841;28;20535;-88
2023/07/06 01:42:51;;;;;;;8.50;5.25;;;12.00;99.90;;;;;;5062230;28;20517;-88
2023/07/06 01:45:23;;;;;;;11.38;5.55;;;12.20;99.90;;;;;;5058921;28;20091;-88
2023/07/06 01:47:55;;;;;;;9.30;5.50;;;12.00;99.90;;;;;;5033201;28;20032;-88
2023/07/06 01:50:36;;;;;;;7.90;5.15;;;11.90;99.90;;;;;;5034030;28;20045;-87
2023/07/06 01:53:25;;;;;;;7.95;5.60;;;12.00;99.90;;;;;;5041923;28;20894;-88
2023/07/06 01:55:57;;;;;;;9.70;5.65;;;12.00;99.90;;;;;;5013824;28;20059;-88
2023/07/06 01:58:34;;;;;;;10.98;6.05;;;12.20;99.90;;;;;;5058614;28;20049;-88
2023/07/06 02:01:07;;;;;;;7.25;5.57;;;12.90;99.90;;;;;;5041346;28;20045;-88
2023/07/06 02:03:33;;;;;;;8.32;5.63;;;12.00;99.90;;;;;;5044138;28;20071;-88
2023/07/06 02:06:01;;;;;;;6.85;5.90;;;11.90;99.90;;;;;;5043179;28;20040;-88
2023/07/06 02:08:28;;;;;;;9.15;6.05;;;12.00;99.90;;;;;;5043929;28;20048;-88
2023/07/06 02:10:54;;;;;;;10.80;6.75;;;12.00;99.90;;;;;;5061610;28;20056;-88
2023/07/06 02:13:22;;;;;;;10.32;7.00;;;12.00;99.90;;;;;;5057602;28;20037;-88
2023/07/06 02:15:47;;;;;;;9.75;6.30;;;12.70;99.90;;;;;;5040868;28;20055;-88
2023/07/06 02:18:13;;;;;;;9.65;7.32;;;12.30;99.90;;;;;;5058665;28;20400;-88
2023/07/06 02:20:39;;;;;;;10.45;7.50;;;12.00;99.90;;;;;;5020031;28;20041;-88
2023/07/06 02:23:07;;;;;;;13.77;6.97;;;12.00;99.90;;;;;;5040194;28;20040;-88
2023/07/06 02:25:34;;;;;;;12.82;7.55;;;12.00;99.90;;;;;;5061908;28;20044;-88
2023/07/06 02:27:59;;;;;;;10.43;6.93;;;12.00;99.90;;;;;;5042433;28;20045;-88
2023/07/06 02:30:25;;;;;;;11.60;6.70;;;12.00;99.90;;;;;;5040324;28;20029;-88
2023/07/06 02:32:51;;;;;;;7.93;7.03;;;12.10;99.90;;;;;;5040399;28;20049;-87
2023/07/06 02:35:19;;;;;;;9.32;6.88;;;12.30;99.90;;;;;;5041852;28;20445;-88
2023/07/06 02:37:44;;;;;;;10.10;7.93;;;12.00;99.90;;;;;;5061461;28;20484;-88
2023/07/06 02:40:11;;;;;;;8.35;6.93;;;12.00;99.90;;;;;;5060129;28;20098;-87
2023/07/06 02:42:41;;;;;;;10.57;7.57;;;12.10;99.90;;;;;;5050261;28;20093;-87
2023/07/06 02:45:07;;;;;;;10.57;7.28;;;12.20;99.90;;;;;;5046989;28;20045;-88
2023/07/06 02:47:33;;;;;;;12.88;7.43;;;12.10;99.90;;;;;;5050025;28;20048;-88
2023/07/06 02:49:59;;;;;;;16.63;7.18;;;12.00;99.90;;;;;;5062892;28;20041;-88
2023/07/06 02:52:25;;;;;;;10.73;6.65;;;12.00;99.90;;;;;;5043801;28;20538;-89
2023/07/06 02:54:53;;;;;;;10.35;7.75;;;12.00;99.90;;;;;;5041004;28;20098;-88
2023/07/06 02:57:19;;;;;;;11.40;7.07;;;12.00;99.90;;;;;;5025496;28;20063;-88
2023/07/06 02:59:45;;;;;;;11.90;7.97;;;12.00;99.90;;;;;;5043098;28;20209;-88
2023/07/06 03:02:12;;;;;;;10.10;6.72;;;12.00;99.90;;;;;;5059077;28;20162;-88
2023/07/06 03:04:38;;;;;;;11.27;6.82;;;12.00;99.90;;;;;;5057428;28;20051;-88
2023/07/06 03:07:05;;;;;;;8.55;7.30;;;12.00;99.90;;;;;;5039918;28;20045;-89
2023/07/06 03:09:31;;;;;;;13.18;7.10;;;12.00;99.90;;;;;;5039220;28;20049;-88
2023/07/06 03:11:56;;;;;;;8.23;6.68;;;12.00;99.90;;;;;;5036200;28;20064;-88
2023/07/06 03:14:24;;;;;;;7.95;6.35;;;12.00;99.90;;;;;;5060783;28;20116;-88
2023/07/06 03:16:53;;;;;;;7.57;6.82;;;12.00;99.90;;;;;;5042549;28;20043;-87
2023/07/06 03:19:21;;;;;;;12.43;6.38;;;12.00;99.90;;;;;;5039786;28;20040;-88
2023/07/06 03:21:47;;;;;;;7.47;6.65;;;12.20;99.90;;;;;;5056761;28;20128;-88
2023/07/06 03:24:13;;;;;;;11.63;6.95;;;12.00;99.90;;;;;;5040454;28;20389;-88
2023/07/06 03:26:41;;;;;;;9.85;6.40;;;12.00;99.90;;;;;;5043062;28;20063;-88
2023/07/06 03:29:08;;;;;;;7.60;6.28;;;12.00;99.90;;;;;;5042081;28;20380;-88
2023/07/06 03:31:35;;;;;;;8.20;6.28;;;;;;;;;;5038872;28;20043;-88
2023/07/06 03:34:02;;;;;;;9.48;7.05;;;12.00;99.90;;;;;;5056868;28;20524;-89
2023/07/06 03:36:28;;;;;;;11.32;6.05;;;12.10;99.90;;;;;;5022727;28;20029;-89
2023/07/06 03:38:54;;;;;;;9.70;5.80;;;12.40;99.90;;;;;;5022191;28;20503;-88
2023/07/06 03:41:20;;;;;;;9.05;6.70;;;12.00;99.90;;;;;;5024278;28;20041;-88
2023/07/06 03:43:46;;;;;;;8.82;6.53;;;12.40;99.90;;;;;;5025826;28;20090;-88
2023/07/06 03:46:15;;;;;;;9.23;6.38;;;12.00;99.90;;;;;;5058856;28;20101;-88
2023/07/06 03:48:47;;;;;;;10.15;6.53;;;12.00;99.90;;;;;;5039525;28;20128;-88
2023/07/06 03:51:13;;;;;;;7.65;5.40;;;12.10;99.90;;;;;;5038268;28;20124;-88
2023/07/06 03:53:39;;;;;;;6.18;5.57;;;12.00;99.90;;;;;;5041433;28;20488;-88
2023/07/06 03:56:06;;;;;;;8.90;6.28;;;12.10;99.90;;;;;;5042593;28;20045;-89
2023/07/06 03:58:33;;;;;;;8.25;5.80;;;12.20;99.90;;;;;;5030681;28;20068;-89
2023/07/06 04:00:59;;;;;;;11.55;6.50;;;12.30;99.90;;;;;;5044980;28;20080;-88
2023/07/06 04:03:28;;;;;;;13.65;11.80;;;12.10;99.90;;;;;;5059439;28;20118;-88
2023/07/06 04:05:54;;;;;;;8.55;6.32;;;12.30;99.90;;;;;;5061278;28;20051;-89
2023/07/06 04:08:21;;;;;;;12.82;9.38;;;12.10;99.90;;;;;;5040902;28;20040;-88
2023/07/06 04:10:48;;;;;;;9.57;7.00;;;12.20;99.90;;;;;;5056868;28;20063;-89
2023/07/06 04:13:14;;;;;;;10.98;6.25;;;12.30;99.90;;;;;;5058093;28;20131;-89
2023/07/06 04:15:46;;;;;;;9.40;6.75;;;12.20;99.90;;;;;;5023235;28;20393;-89
2023/07/06 04:18:15;;;;;;;14.82;6.68;;;12.50;99.90;;;;;;5057769;28;20076;-87
2023/07/06 04:20:41;;;;;;;7.88;5.78;;;12.20;99.90;;;;;;5058726;28;20131;-89
2023/07/06 04:23:09;;;;;;;11.25;6.88;;;12.10;99.90;;;;;;5025799;28;20393;-89
2023/07/06 04:25:36;;;;;;;9.20;5.85;;;12.30;99.90;;;;;;5019338;28;20033;-89
2023/07/06 04:28:05;;;;;;;16.10;6.22;;;12.50;99.90;;;;;;5038020;28;20045;-89
2023/07/06 04:30:35;;;;;;;11.18;6.32;;;12.20;99.90;;;;;;5064663;28;20028;-89
2023/07/06 04:33:03;;;;;;;8.48;6.18;;;12.30;99.90;;;;;;5051173;28;20064;-90
2023/07/06 04:35:31;;;;;;;7.85;6.38;;;12.30;99.90;;;;;;5035381;28;20041;-87
2023/07/06 04:37:59;;;;;;;10.98;6.25;;;;;;;;;;5029996;28;20045;-87
2023/07/06 04:40:26;;;;;;;9.38;6.32;;;12.40;99.90;;;;;;5063692;28;20083;-87
2023/07/06 04:42:56;;;;;;;9.45;6.40;;;12.40;99.90;;;;;;5038727;28;20044;-90
2023/07/06 04:45:24;;;;;;;12.43;6.75;;;12.40;99.90;;;;;;5062986;28;20045;-90
2023/07/06 04:47:51;;;;;;;12.50;6.32;;;12.50;99.90;;;;;;5045644;28;20130;-89
2023/07/06 04:50:22;;;;;;;11.52;6.88;;;12.50;99.90;;;;;;5029344;28;20451;-89
2023/07/06 04:52:53;;;;;;;11.02;8.43;;;12.50;99.90;;;;;;5042674;28;20072;-88
2023/07/06 04:55:23;;;;;;;12.05;8.35;;;12.50;99.90;;;;;;5061522;28;20448;-88
2023/07/06 04:57:54;;;;;;;13.73;8.60;;;12.50;99.90;;;;;;5031579;28;20049;-88
2023/07/06 05:00:25;;;;;;;10.88;7.35;;;12.50;99.90;;;;;;5042499;28;20053;-88
2023/07/06 05:02:58;;;;;;;11.65;6.95;;;12.60;99.90;;;;;;5025145;28;20037;-88
2023/07/06 05:05:28;;;;;;;11.35;7.40;;;12.70;99.90;;;;;;5046479;28;20049;-89
2023/07/06 05:07:55;;;;;;;10.77;7.50;;;12.50;99.90;;;;;;5029046;28;20029;-89
2023/07/06 05:10:21;;;;;;;10.15;7.55;;;12.50;99.90;;;;;;5046277;28;20044;-88
2023/07/06 05:12:47;;;;;;;11.00;6.95;;;12.80;99.90;;;;;;5039432;28;20157;-88
2023/07/06 05:15:17;;;;;;;8.80;7.68;;;;;;;;;;5022307;28;20144;-88
2023/07/06 05:17:43;;;;;;;11.27;7.88;;;12.60;99.90;;;;;;5029426;28;20041;-88
2023/07/06 05:20:14;;;;;;;12.30;7.68;;;11.30;99.90;;;;;;5039936;28;20060;-88
2023/07/06 05:22:47;;;;;;;12.82;8.13;;;12.60;99.90;;;;;;5042211;28;20083;-88
2023/07/06 05:25:13;;;;;;;14.07;8.23;;;;;;;;;;5059409;28;20068;-87
2023/07/06 05:27:39;;;;;;;20.48;9.80;;;;;;;;;;5060157;28;20073;-88
2023/07/06 05:30:06;;;;;;;20.92;9.45;;;12.70;99.90;;;;;;5041310;28;20044;-89
2023/07/06 05:32:33;;;;;;;13.20;8.48;;;12.70;99.90;;;;;;5061981;28;20535;-88
2023/07/06 05:34:59;;;;;;;16.65;10.00;;;12.70;99.90;;;;;;5046871;28;20064;-88
2023/07/06 05:37:25;;;;;;;12.60;9.02;;;;;;;;;;5043970;28;20083;-88
2023/07/06 05:39:51;;;;;;;19.85;9.48;;;12.80;99.90;;;;;;5042610;28;20044;-89
2023/07/06 05:42:17;;;;;;;16.50;10.13;;;12.70;99.90;;;;;;5059101;28;20500;-88
2023/07/06 05:44:44;;;;;;;19.20;9.73;;;12.90;99.90;;;;;;5067058;28;20047;-88
2023/07/06 05:47:10;;;;;;;13.05;9.38;;;13.00;99.90;;;;;;5038680;28;20055;-88
2023/07/06 05:49:36;;;;;;;16.48;9.30;;;12.80;99.90;;;;;;5064616;28;20045;-89
2023/07/06 05:52:08;;;;;;;18.30;9.60;;;14.70;99.90;;;;;;5037546;28;20052;-88
2023/07/06 05:54:33;;;;;;;16.90;8.75;;;12.80;99.90;;;;;;5061128;28;20040;-88
2023/07/06 05:57:02;;;;;;;20.58;9.65;;;13.30;99.90;;;;;;5048570;28;20045;-87
2023/07/06 05:59:29;;;;;;;18.52;8.40;;;;;;;;;;5037917;28;20189;-88
2023/07/06 06:01:55;;;;;;;17.85;9.32;;;;;;;;;;5044506;28;20040;-89
2023/07/06 06:04:28;;;;;;;21.38;9.98;;;13.50;99.90;;;;;;5045666;28;20068;-89
2023/07/06 06:06:56;;;;;;;20.83;9.75;;;12.00;99.90;;;;;;5031595;28;20098;-88
2023/07/06 06:09:28;;;;;;;22.30;9.65;;;12.00;99.90;;;;;;5045387;28;20041;-88
2023/07/06 06:11:54;;;;;;;24.73;9.18;;;13.80;99.90;;;;;;5044956;28;20582;-86
2023/07/06 06:14:20;;;;;;;20.30;9.88;;;13.70;99.90;;;;;;5061274;28;20040;-88
2023/07/06 06:16:47;;;;;;;17.70;9.95;;;;;;;;;;5021249;28;20041;-89
2023/07/06 06:19:13;;;;;;;17.52;8.98;;;13.80;99.90;;;;;;5054268;28;20414;-88
2023/07/06 06:21:39;;;;;;;17.70;10.32;;;;;;;;;;5044477;28;20053;-88
2023/07/06 06:24:08;;;;;;;16.20;9.75;;;13.90;99.90;;;;;;5044416;28;20059;-88
2023/07/06 06:26:35;;;;;;;18.08;10.48;;;14.00;99.90;;;;;;5046755;28;20053;-88
2023/07/06 06:29:02;;;;;;;19.63;9.25;;;14.10;99.90;;;;;;5047016;28;20103;-87
2023/07/06 06:31:28;;;;;;;17.60;9.13;;;14.10;99.90;;;;;;5028386;28;20086;-88
2023/07/06 06:33:54;;;;;;;17.75;9.23;;;14.20;99.90;;;;;;5044485;28;20456;-88
2023/07/06 06:36:22;;;;;;;19.10;10.10;;;14.30;99.90;;;;;;5062710;28;20046;-89
2023/07/06 06:38:48;;;;;;;17.50;9.65;;;12.90;99.90;;;;;;5041637;28;20049;-88
2023/07/06 06:41:15;;;;;;;14.93;8.32;;;14.30;99.90;;;;;;5040643;28;20076;-88
2023/07/06 06:43:43;;;;;;;19.98;9.63;;;14.40;99.90;;;;;;5043131;28;20481;-88
2023/07/06 06:46:11;;;;;;;22.05;9.48;;;14.50;99.90;;;;;;5062383;28;20048;-88
2023/07/06 06:48:39;;;;;;;16.58;9.63;;;14.50;99.90;;;;;;5025290;28;20408;-88
2023/07/06 06:51:10;;;;;;;16.27;9.48;;;14.70;99.90;;;;;;5024637;28;20037;-89
2023/07/06 06:53:39;;;;;;;23.38;9.50;;;14.90;99.90;;;;;;5059912;28;20082;-89
2023/07/06 06:56:09;;;;;;;14.48;9.15;;;14.90;99.90;;;;;;5062162;28;20042;-89
2023/07/06 06:58:36;;;;;;;18.98;9.70;;;15.00;99.90;;;;;;5068138;28;20037;-89
2023/07/06 07:01:06;;;;;;;19.15;9.75;;;15.00;99.90;;;;;;5046024;28;20048;-89
2023/07/06 07:03:34;;;;;;;23.65;10.40;;;14.30;99.90;;;;;;5067381;28;20047;-89
2023/07/06 07:06:17;;;;;;;17.58;8.18;;;15.10;99.90;;;;;;5061879;28;20045;-89
2023/07/06 07:08:49;;;;;;;19.63;8.80;;;15.20;99.90;;;;;;5032743;28;20044;-90
2023/07/06 07:11:20;;;;;;;15.45;7.30;;;15.20;99.90;;;;;;5038727;28;20424;-88
2023/07/06 07:13:47;;;;;;;15.60;7.65;;;15.50;99.90;;;;;;5031037;28;20039;-87
2023/07/06 07:16:14;;;;;;;15.35;6.93;;;15.40;99.90;;;;;;5057834;28;20033;-87
2023/07/06 07:18:40;;;;;;;14.05;8.20;;;15.50;99.90;;;;;;5059796;28;20547;-88
2023/07/06 07:21:07;;;;;;;13.40;6.78;;;16.30;99.90;;;;;;5042967;28;20067;-87
2023/07/06 07:23:54;;;;;;;11.13;4.35;;;15.80;99.90;;;;;;5059837;28;20067;-88
2023/07/06 07:26:22;;;;;;;15.15;5.93;;;16.20;99.90;;;;;;5061108;28;20047;-87
2023/07/06 07:28:48;;;;;;;13.07;5.30;;;16.10;99.90;;;;;;5061472;28;20040;-88
2023/07/06 07:31:15;;;;;;;15.60;6.45;;;16.00;99.90;;;;;;5065649;28;20055;-88
2023/07/06 07:33:44;;;;;;;12.95;5.22;;;16.00;99.90;;;;;;5050562;28;20127;-88
2023/07/06 07:36:16;;;;;;;11.68;5.68;;;16.10;99.90;;;;;;5040282;28;20123;-88
2023/07/06 07:38:42;;;;;;;11.93;5.55;;;16.20;99.90;;;;;;5056782;28;20091;-88
2023/07/06 07:41:09;;;;;;;13.82;4.70;;;16.20;99.90;;;;;;5021243;28;20057;-88
2023/07/06 07:43:41;;;;;;;12.18;3.70;;;16.20;99.90;;;;;;5039591;28;20500;-87
2023/07/06 07:46:10;;;;;;;12.60;3.70;;;16.20;99.90;;;;;;5060687;28;20076;-87
2023/07/06 07:48:45;;;;;;;12.50;4.43;;;16.30;99.90;;;;;;5059720;28;20029;-87
2023/07/06 07:51:12;;;;;;;9.70;2.63;;;16.40;99.90;;;;;;5038934;28;20300;-88
2023/07/06 07:53:39;;;;;;;4.50;2.28;;;16.40;99.90;;;;;;5056962;28;20539;-87
2023/07/06 07:56:06;;;;;;;6.82;2.50;;;16.60;99.90;;;;;;5056807;28;20129;-87
2023/07/06 07:58:34;;;;;;;3.75;1.50;;;16.60;99.90;;;;;;5056355;28;20053;-88
2023/07/06 08:01:01;;;;;;;4.13;1.90;;;16.70;99.90;;;;;;5048784;28;20049;-88
2023/07/06 08:03:27;;;;;;;7.03;2.10;;;16.80;99.90;;;;;;5039085;28;20462;-89
2023/07/06 08:05:59;;;;;;;6.63;3.05;;;16.90;99.90;;;;;;5063400;28;20060;-88
2023/07/06 08:08:25;;;;;;;6.63;3.08;;;16.90;99.90;;;;;;5064911;28;20037;-87
2023/07/06 08:10:53;;;;;;;11.40;3.38;;;16.90;99.90;;;;;;5062147;28;20044;-88
2023/07/06 08:13:20;;;;;;;10.15;3.30;;;16.90;99.90;;;;;;5042216;28;20043;-88
2023/07/06 08:15:46;;;;;;;11.82;4.28;;;17.00;99.90;;;;;;5045547;28;20048;-88
2023/07/06 08:18:12;;;;;;;6.97;2.53;;;17.00;99.90;;;;;;5064931;28;20142;-87
2023/07/06 08:20:38;;;;;;;7.03;2.42;;;17.10;99.90;;;;;;5063651;28;20032;-87
2023/07/06 08:23:10;;;;;;;7.75;2.08;;;17.00;99.90;;;;;;5060755;28;20069;-87
2023/07/06 08:25:44;;;;;;;9.15;2.78;;;17.00;99.90;;;;;;5060352;28;20045;-89
2023/07/06 08:28:14;;;;;;;8.02;2.38;;;16.90;99.90;;;;;;5035318;28;20041;-88
2023/07/06 08:30:42;;;;;;;9.40;2.63;;;17.00;99.90;;;;;;5061497;28;20059;-88
2023/07/06 08:33:12;;;;;;;7.85;2.50;;;16.90;99.90;;;;;;5045216;28;20492;-88
2023/07/06 08:35:44;;;;;;;7.03;2.05;;;16.90;99.90;;;;;;5064189;28;20068;-87
2023/07/06 08:38:13;;;;;;;9.05;2.35;;;17.00;99.90;;;;;;5060715;28;20408;-87
2023/07/06 08:40:40;;;;;;;5.25;1.58;;;17.10;99.90;;;;;;5060197;28;20044;-87
2023/07/06 08:43:19;;;;;;;4.00;1.38;;;17.20;99.90;;;;;;5063984;28;20515;-87
2023/07/06 08:45:52;;;;;;;5.05;1.65;;;17.40;99.90;;;;;;5028443;28;20334;-87
2023/07/06 08:48:20;;;;;;;4.65;1.15;;;17.50;99.90;;;;;;5060173;28;20091;-86
2023/07/06 08:50:51;;;;;;;5.60;1.70;;;17.60;99.90;;;;;;5025247;28;20040;-88
2023/07/06 08:53:20;;;;;;;4.35;1.00;;;17.70;99.90;;;;;;5053267;28;20048;-87
2023/07/06 08:55:49;;;;;;;2.88;1.00;;;17.70;99.90;;;;;;5042697;28;20657;-87
2023/07/06 08:58:26;;;;;;;5.57;1.33;;;18.00;99.90;;;;;;5064454;28;20045;-87
2023/07/06 09:01:03;;;;;;;4.93;1.40;;;19.00;99.90;;;;;;5044117;28;20048;-87
2023/07/06 09:03:37;;;;;;;4.32;1.70;;;17.80;99.90;;;;;;5062583;28;20055;-88
2023/07/06 09:06:03;;;;;;;5.35;1.70;;;17.80;99.90;;;;;;5070296;28;20041;-87
2023/07/06 09:08:28;;;;;;;5.47;1.33;;;17.80;99.90;;;;;;5048204;28;20115;-88
2023/07/06 09:10:54;;;;;;;3.10;1.25;;;17.80;99.90;;;;;;5061942;28;20047;-90
2023/07/06 09:13:27;;;;;;;1.40;0.70;;;17.90;99.90;;;;;;5059861;28;20116;-86
2023/07/06 09:16:01;;;;;;;3.00;1.23;;;18.00;99.90;;;;;;5026563;28;20080;-88
2023/07/06 09:18:29;;;;;;;3.25;1.00;;;18.00;99.90;;;;;;5055371;28;20037;-87
2023/07/06 09:20:57;;;;;;;5.15;1.38;;;18.00;99.90;;;;;;5053073;28;20046;-87
2023/07/06 09:23:24;;;;;;;5.03;1.42;;;18.00;99.90;;;;;;5044650;28;20106;-87
2023/07/06 09:25:51;;;;;;;5.80;1.20;;;17.90;99.90;;;;;;5062683;28;20105;-87
2023/07/06 09:28:19;;;;;;;5.45;1.55;;;17.00;99.90;;;;;;5059527;28;20041;-88
2023/07/06 09:30:48;;;;;;;3.83;1.38;;;18.00;99.90;;;;;;5058880;28;20043;-88
2023/07/06 09:33:26;;;;;;;3.90;1.27;;;18.00;99.90;;;;;;5062456;28;20086;-87
2023/07/06 09:35:57;;;;;;;3.17;1.45;;;18.10;99.90;;;;;;5043611;28;20414;-88
2023/07/06 09:38:24;;;;;;;6.75;1.50;;;18.20;99.90;;;;;;5058711;28;20045;-91
2023/07/06 09:40:52;;;;;;;4.38;1.60;;;18.30;99.90;;;;;;5041630;28;20045;-88
2023/07/06 09:43:19;;;;;;;2.55;1.17;;;18.40;99.90;;;;;;5063035;28;20037;-88
2023/07/06 09:45:45;;;;;;;4.70;1.50;;;18.40;99.90;;;;;;5045945;28;20150;-87
2023/07/06 09:48:30;;;;;;;2.60;1.10;;;18.40;99.90;;;;;;5061635;28;20068;-88
2023/07/06 09:51:25;;;;;;;5.25;1.38;;;18.40;99.90;;;;;;5050739;28;20044;-88
2023/07/06 09:53:56;;;;;;;4.60;1.45;;;16.90;99.90;;;;;;5059312;28;20827;-89
2023/07/06 09:56:22;;;;;;;4.22;1.38;;;18.30;99.90;;;;;;5062359;28;20051;-88
2023/07/06 09:58:52;;;;;;;6.18;1.35;;;18.30;99.90;;;;;;5046893;28;20385;-89
2023/07/06 10:01:37;;;;;;;4.20;1.20;;;18.30;99.90;;;;;;5052025;28;20143;-88
2023/07/06 10:04:34;;;;;;;4.22;0.90;;;18.30;99.90;;;;;;5060398;28;20048;-88
2023/07/06 10:07:29;;;;;;;6.93;1.00;;;18.30;99.90;;;;;;5045622;28;20045;-89
2023/07/06 10:10:23;;;;;;;1.92;0.95;;;18.30;99.90;;;;;;5035035;28;20075;-88
2023/07/06 10:13:01;;;;;;;2.45;0.95;;;18.30;99.90;;;;;;5061233;28;20094;-89
2023/07/06 10:16:04;;;;;;;3.25;0.88;;;18.40;99.90;;;;;;5033506;28;20064;-89
2023/07/06 10:18:41;;;;;;;5.82;1.10;;;18.70;99.90;;;;;;5014094;28;20045;-89
2023/07/06 10:21:17;;;;;;;1.60;0.50;;;18.80;99.90;;;;;;5041803;28;20273;-89
2023/07/06 10:23:54;;;;;;;1.90;0.75;;;18.90;99.90;;;;;;5047480;28;20040;-90
2023/07/06 10:26:26;;;;;;;2.05;0.75;;;19.00;99.90;;;;;;5049179;28;20520;-88
2023/07/06 10:28:59;;;;;;;2.60;0.60;;;19.10;99.90;;;;;;5058542;28;20052;-88
2023/07/06 10:31:43;;;;;;;1.70;0.70;;;19.10;99.90;;;;;;5051377;28;20067;-88
2023/07/06 10:34:29;;;;;;;2.55;1.08;;;19.00;99.90;;;;;;5059614;28;20048;-89
2023/07/06 10:36:56;;;;;;;2.83;0.47;;;19.10;99.90;;;;;;5027290;28;20051;-88
2023/07/06 10:39:24;;;;;;;1.58;0.70;;;19.20;99.90;;;;;;5050141;28;20345;-89
2023/07/06 10:42:00;;;;;;;1.92;0.60;;;19.20;99.90;;;;;;5057190;28;20045;-89
2023/07/06 10:44:59;;;;;;;3.55;0.70;;;19.30;99.90;;;;;;5050343;28;20481;-89
2023/07/06 10:47:44;;;;;;;2.05;0.50;;;19.40;99.90;;;;;;5044214;28;20041;-89
2023/07/06 10:50:31;;;;;;;2.33;0.75;;;19.40;99.90;;;;;;5042174;28;20085;-89
2023/07/06 10:53:01;;;;;;;2.53;0.60;;;19.30;99.90;;;;;;5060692;28;20052;-90
2023/07/06 10:55:34;;;;;;;2.50;0.75;;;19.30;99.90;;;;;;5029102;28;20048;-89
2023/07/06 10:58:17;;;;;;;4.30;0.98;;;20.00;99.90;;;;;;5055441;28;20084;-88
2023/07/06 11:00:44;;;;;;;3.38;1.65;;;19.40;99.90;;;;;;5045575;28;20055;-89
2023/07/06 11:03:16;;;;;;;5.78;1.17;;;19.50;99.90;;;;;;5052249;28;20103;-90
2023/07/06 11:06:07;;;;;;;5.05;1.00;;;19.70;99.90;;;;;;5064036;28;20223;-88
2023/07/06 11:09:05;;;;;;;2.88;0.80;;;19.70;99.90;;;;;;5032602;28;20089;-90
2023/07/06 11:11:43;;;;;;;6.40;1.27;;;19.60;99.90;;;;;;5039575;28;20037;-89
2023/07/06 11:14:24;;;;;;;3.25;0.82;;;19.50;99.90;;;;;;5039781;28;20040;-89
2023/07/06 11:17:00;;;;;;;4.78;1.10;;;19.40;99.90;;;;;;5019527;28;20057;-88
2023/07/06 11:19:40;;;;;;;1.33;0.82;;;19.30;99.90;;;;;;5042721;28;20054;-90
2023/07/06 11:22:13;;;;;;;5.05;1.20;;;19.20;99.90;;;;;;5051611;28;20119;-89
2023/07/06 11:24:44;;;;;;;3.87;1.00;;;19.10;99.90;;;;;;5043249;28;20044;-89
2023/07/06 11:27:31;;;;;;;3.08;1.17;;;19.10;99.90;;;;;;5060463;28;20299;-89
2023/07/06 11:30:13;;;;;;;3.05;0.82;;;19.00;99.90;;;;;;5057081;28;20500;-89
2023/07/06 11:32:51;;;;;;;2.45;1.45;;;18.90;99.90;;;;;;5057474;28;20524;-90
2023/07/06 11:35:31;;;;;;;4.55;1.38;;;19.00;99.90;;;;;;5059443;28;20068;-89
2023/07/06 11:38:05;;;;;;;3.00;1.42;;;18.80;99.90;;;;;;5059993;28;20127;-88
2023/07/06 11:40:41;;;;;;;4.80;1.52;;;18.80;99.90;;;;;;5057631;28;20543;-89
2023/07/06 11:43:27;;;;;;;2.67;1.42;;;18.80;99.90;;;;;;5056648;28;20041;-89
2023/07/06 11:46:14;;;;;;;4.22;1.40;;;18.90;99.90;;;;;;5043154;28;20102;-88
2023/07/06 11:48:49;;;;;;;2.20;1.40;;;19.00;99.90;;;;;;5020192;28;20057;-88
2023/07/06 11:51:19;;;;;;;2.90;0.90;;;19.00;99.90;;;;;;5036871;28;20049;-89
2023/07/06 11:56:32;;;;;;;2.97;1.33;;;19.00;99.90;;;;;;5043850;28;20052;-88
2023/07/06 11:59:15;;;;;;;3.85;1.48;;;18.90;99.90;;;;;;5018766;28;20599;-89
2023/07/06 12:01:45;;;;;;;3.85;1.38;;;18.90;99.90;;;;;;5050091;28;20100;-89
2023/07/06 12:04:20;;;;;;;2.97;1.42;;;18.80;99.90;;;;;;5056709;28;20071;-89
2023/07/06 12:06:48;;;;;;;3.17;1.25;;;18.80;99.90;;;;;;5056770;28;20489;-88
2023/07/06 12:09:18;;;;;;;1.80;1.40;;;18.80;99.90;;;;;;5039630;28;20053;-89
2023/07/06 12:11:47;;;;;;;2.47;1.00;;;18.80;99.90;;;;;;5059457;28;20048;-88
2023/07/06 12:14:20;;;;;;;3.42;1.10;;;18.80;99.90;;;;;;5052119;28;20332;-89
2023/07/06 12:16:49;;;;;;;2.50;0.93;;;19.00;99.90;;;;;;5043356;28;20480;-89
2023/07/06 12:19:17;;;;;;;2.13;0.30;;;19.40;99.90;;;;;;5058656;28;20045;-88
2023/07/06 12:21:54;;;;;;;1.88;0.50;;;19.70;99.90;;;;;;5056544;28;20504;-88
2023/07/06 12:24:23;;;;;;;1.73;0.55;;;20.00;99.90;;;;;;5039977;28;20041;-88
2023/07/06 12:26:55;;;;;;;1.33;0.50;;;19.70;99.90;;;;;;5059790;28;20575;-88
2023/07/06 12:29:26;;;;;;;2.20;0.75;;;20.40;99.90;;;;;;5042102;28;20128;-89
2023/07/06 12:31:54;;;;;;;1.83;0.40;;;20.60;99.90;;;;;;5038924;28;20063;-91
2023/07/06 12:34:27;;;;;;;3.10;0.50;;;20.80;98.40;;;;;;5039510;28;20041;-89
2023/07/06 12:36:55;;;;;;;4.07;0.73;;;21.10;98.20;;;;;;5042427;28;20930;-89
2023/07/06 12:39:22;;;;;;;4.32;0.65;;;21.20;98.10;;;;;;5067801;28;20045;-90
2023/07/06 12:41:50;;;;;;;0.77;0.40;;;21.40;98.30;;;;;;5019726;28;20049;-90
2023/07/06 12:44:17;;;;;;;3.05;0.88;;;21.50;99.20;;;;;;5036525;28;20059;-90
2023/07/06 12:46:56;;;;;;;2.25;0.50;;;21.50;97.90;;;;;;5066865;28;20036;-90
2023/07/06 12:49:23;;;;;;;2.78;0.40;;;21.60;97.50;;;;;;5069015;28;20547;-89
2023/07/06 12:51:55;;;;;;;0.55;0.47;;;21.70;98.20;;;;;;5062008;28;20064;-89
2023/07/06 12:54:29;;;;;;;2.65;0.40;;;21.70;96.60;;;;;;5060252;28;20428;-89
2023/07/06 12:57:03;;;;;;;0.63;0.30;;;21.70;96.20;;;;;;5046053;28;20044;-88
2023/07/06 12:59:34;;;;;;;1.35;0.47;;;21.70;96.80;;;;;;5062126;28;20064;-91
2023/07/06 13:02:15;;;;;;;2.08;0.75;;;21.70;95.60;;;;;;5059555;28;20048;-91
2023/07/06 13:04:45;;;;;;;1.67;0.40;;;21.80;95.60;;;;;;5045728;28;20119;-91
2023/07/06 13:07:14;;;;;;;3.50;0.88;;;21.90;96.30;;;;;;5045554;28;20056;-89
2023/07/06 13:09:41;;;;;;;6.75;1.23;;;22.90;97.40;;;;;;5060567;28;20064;-90